MAY 22, 2019

 

MET REPORT SMJP 220100Z WIND RWY 11 TDZ 140/3KT VIS RWY 11 TDZ 10KM END 10KM CLD RWY 11 FEW 800FT SCT 2500FT T26 DP25 QNH 1012HPA QFE RWY 11 1010HPA TREND NOSIG=

 

METAR SMJP 220100Z VRB01KT 9999 FEW008 SCT025 26/25 Q1012 NOSIG=